Historyczne dane pomiarowe

Dodano dane terminowe – wersja testowa.

Dane z okresu 1951-2019

Wersja bazy: 1.34 [2019-03-16, lista zmian], aktualizacja planowana na 2019-04-15

Dane meteo z obszaru Polski uzyskane na podstawie danych udostępnionych przez Instytut Meteorologii i Gospodarki Wodnej – Państwowy Instytut Badawczy.

 

Wybierz Datę:    

       

TemperaturaWilgotnośćWiatrCiśnienieOpadyŚniegCzas trwania zjawisk
 Stacja t tx tn tng RH VA  wxwx mslp ppp RRR   cm mm wxwxwxwxwxwxwx
1994-08-14 15.5 19.9 10.9 7.0 58.3- 4.0 2.3---- 0.0------------
1994-08-13 18.2 23.4 14.7 14.4 70.5- 3.7 3.3---- 0.0------------
1994-08-12 17.8 21.1 12.8 10.5 81.0- 7.3 1.0---- 0.9------------
1994-08-11 20.0 25.1 17.0 16.3 82.3- 5.3 1.7---- 0.0------------
1994-08-10 19.8 28.3 12.0 9.9 79.8- 3.0 1.3---- 11.9------------
1994-08-09 20.2 23.5 16.8 16.8 89.3- 4.7 1.0---- 9.2------------
1994-08-08 20.9 24.9 15.6 14.6 86.0- 7.3 0.7---- 19.4------------
1994-08-07 22.6 29.9 15.7 12.1 76.5- 4.3 0.3---- 8.8------------
1994-08-06 24.3 33.0 13.3 9.8 60.8- 3.7 1.0---- 0.0------------
1994-08-05 23.2 32.7 10.9 7.1 58.3- 1.0 1.3---- 0.0------------
1994-08-04 22.6 30.5 12.4 8.0 58.8- 1.7 1.3---- 0.0------------
1994-08-03 24.2 28.8 18.3 14.6 70.3- 3.7 1.3---- 0.0------------
1994-08-02 26.4 33.8 14.0 10.4 53.8- 1.7 3.0---- 0.2------------
1994-08-01 27.3 37.0 15.2 12.0 50.8- 1.0 1.0---- 0.0------------
1994-07-31 26.2 36.5 13.5 10.1 55.8- 1.3 0.3---- 0.0------------
1994-07-30 25.3 35.5 12.4 9.6 53.8- 0.0 0.7---- 0.0------------
1994-07-29 24.9 35.0 12.5 9.4 53.3- 1.0 0.3---- 0.0------------
1994-07-28 24.7 34.5 11.0 7.5 54.5- 3.3 0.3---- 0.0------------
1994-07-27 24.1 34.0 14.8 11.3 58.3- 2.3 0.0---- 0.0------------
1994-07-26 24.7 34.5 12.1 9.1 56.8- 2.7 0.7---- 0.0------------
1994-07-25 23.5 33.0 10.5 7.5 54.8- 1.7 1.0---- 0.0------------
1994-07-24 22.7 31.5 9.6 5.8 50.8- 1.7 1.3---- 0.0------------
1994-07-23 21.6 30.3 7.9 3.9 54.3- 1.7 1.3---- 0.0------------
1994-07-22 21.5 30.4 8.4 4.7 53.5- 0.3 0.7---- 0.0------------
1994-07-21 20.2 27.9 7.5 3.5 55.0- 0.0 1.0---- 0.0------------
1994-07-20 19.9 25.5 11.5 8.6 53.8- 2.0 1.7---- 0.0------------
1994-07-19 18.8 23.6 14.4 12.0 72.3- 8.0 0.7---- 0.0------------
1994-07-18 20.9 25.7 14.5 11.3 77.0- 4.0 1.3---- 0.0------------
1994-07-17 20.8 28.3 14.0 11.7 79.3- 7.3 0.3---- 2.2------------
1994-07-16 22.8 29.4 15.8 13.0 68.8- 4.0 0.7---- 7.5------------
1994-07-15 23.3 30.4 11.8 8.7 59.5- 3.0 2.0---- 0.0------------
1994-07-14 22.5 31.5 11.3 8.4 61.5- 2.3 0.7---- 0.0------------
1994-07-13 21.8 29.4 10.0 6.4 60.0- 3.0 1.3---- 0.0------------
1994-07-12 21.8 27.9 15.0 12.1 69.0- 5.0 1.7---- 0.0------------
1994-07-11 20.6 27.9 11.0 6.1 71.5- 4.0 2.0---- 0.0------------
1994-07-10 18.2 23.1 13.0 10.1 82.0- 7.3 2.0---- 0.3------------
1994-07-09 16.5 20.3 14.0 12.6 80.3- 7.0 3.3---- 1.2------------
1994-07-08 15.8 20.8 11.4 6.4 74.0- 5.7 4.3---- 0.2------------
1994-07-07 18.5 25.2 10.2 8.0 80.8- 6.3 0.7---- 1.4------------
1994-07-06 20.2 25.9 10.0 6.3 72.0- 2.3 0.7---- 0.0------------
1994-07-05 20.0 27.1 12.6 9.6 74.5- 6.3 0.7---- 0.0------------
1994-07-04 22.1 30.7 9.3 6.3 63.0- 0.7 0.7---- 0.0------------
1994-07-03 20.4 28.7 7.7 4.1 63.3- 0.0 0.3---- 0.0------------
1994-07-02 18.8 26.4 7.6 4.1 66.8- 0.0 1.7---- 0.0------------
1994-07-01 17.7 23.4 9.6 5.9 66.8- 1.3 1.0---- 0.0------------
1994-06-30 20.5 22.6 17.3 14.9 86.3- 6.3 1.3---- 2.3------------
1994-06-29 24.5 33.2 15.9 13.1 71.8- 2.7 1.3---- 6.8------------
1994-06-28 25.4 32.1 16.1 14.0 72.0- 5.0 1.0---- 0.0------------
1994-06-27 25.1 32.8 15.2 12.9 68.0- 2.7 0.3---- 0.0------------
1994-06-26 21.8 31.5 7.4 4.0 63.0- 1.7 0.7---- 0.0------------
1994-06-25 16.6 25.5 2.7 -1.0 57.3- 0.0 1.7---- 0.0------------
1994-06-24 15.7 22.0 5.2 -0.4 57.3- 0.0 1.7---- 0.0------------
1994-06-23 17.7 21.9 14.3 12.8 54.5- 2.3 2.3---- 0.0------------
1994-06-22 18.9 26.7 9.4 6.6 72.5- 5.7 2.7---- 0.0------------
1994-06-21 16.2 22.9 5.6 1.4 67.8- 1.7 1.0---- 0.0------------
1994-06-20 16.0 22.7 9.4 5.6 73.0- 6.0 1.3---- 0.0------------
1994-06-19 19.4 27.0 12.2 11.9 67.5- 4.7 1.3---- 0.0------------
1994-06-18 12.6 20.9 1.0 -1.5 75.8- 6.0 1.3---- 1.0------------
1994-06-17 12.0 15.5 8.1 7.5 69.0- 6.0 1.7---- 0.0------------
1994-06-16 12.6 16.5 4.6 0.5 68.8- 7.3 1.7---- 4.5------------
317.1 ms

 

Źródłem pochodzenia danych jest Instytut Meteorologii i Gospodarki Wodnej – Państwowy Instytut Badawczy. Dane Instytutu Meteorologii i Gospodarki Wodnej – Państwowego Instytutu Badawczego zostały przetworzone.

Dane źródłowe można odnaleźć na stronie https://dane.imgw.pl